PWSweather.com
Personal Weather Stations
Station Observations
KIDJEROME
Sse Jerome Butte , Jerome, ID 83338

Sse Jerome Butte Jerome, ID 83338

Lat: 42.6981891, Lon: -114.4041362

Elevation: 3960

Station Type: Davis Vantage Pro 2

High Low Average
Temperature 45.7°F7.6°C 33.5°F0.8°C 38.3°F3.5°C
Dew Point 40.0°F4.4°C 32.0°F0.0°C 35.5°F1.9°C
Winds 16.0 mph 25.7 kmh Calm Calm 6.0 mph SSE9.7 kmh SSE
Wind Gusts 26.0 mph41.8 kmh 1.0 mph1.6 kmh 10.0 mph16.1 kmh
Humidity 94% 76% 90%
Pressure 29.97 in1014.9 mb 29.77 in1008.1 mb -
Precipitation 0.28 in7.1 mm - -
Hour Temp Dew Point Humidity Winds Wind Gusts Pressure Precip Precip Rate Daily Precip Total
12:00 AM 35.8°F2.1°C 33.4°F0.8°C 91% 7.0 mph N11.3 kmh N 12.0 mph19.3 kmh 29.97 in1014.9 mb 0.04 in1.0 mm 0.00 in0.0 mm 0.04 in1.0 mm
12:15 AM 35.7°F2.1°C 33.6°F0.9°C 92% 9.0 mph N14.5 kmh N 12.0 mph19.3 kmh 29.96 in1014.6 mb 0.02 in0.5 mm 0.00 in0.0 mm 0.04 in1.0 mm
12:30 AM 35.0°F1.7°C 33.2°F0.7°C 93% 10.0 mph NE16.1 kmh NE 13.0 mph20.9 kmh 29.96 in1014.6 mb 0.01 in0.3 mm 0.00 in0.0 mm 0.04 in1.0 mm
12:45 AM 34.9°F1.6°C 33.1°F0.6°C 93% 10.0 mph NE16.1 kmh NE 15.0 mph24.1 kmh 29.95 in1014.2 mb 0.00 in0.0 mm 0.00 in0.0 mm 0.04 in1.0 mm
01:00 AM 34.6°F1.4°C 32.8°F0.4°C 93% 10.0 mph NE16.1 kmh NE 14.0 mph22.5 kmh 29.94 in1013.9 mb 0.00 in0.0 mm 0.00 in0.0 mm 0.04 in1.0 mm
01:15 AM 35.8°F2.1°C 34.2°F1.2°C 94% 10.0 mph NE16.1 kmh NE 14.0 mph22.5 kmh 29.94 in1013.9 mb 0.00 in0.0 mm 0.00 in0.0 mm 0.04 in1.0 mm
01:30 AM 37.1°F2.8°C 35.3°F1.8°C 93% 10.0 mph NE16.1 kmh NE 14.0 mph22.5 kmh 29.94 in1013.9 mb 0.00 in0.0 mm 0.00 in0.0 mm 0.04 in1.0 mm
01:45 AM 37.5°F3.1°C 35.4°F1.9°C 92% 4.0 mph N6.4 kmh N 9.0 mph14.5 kmh 29.94 in1013.9 mb 0.00 in0.0 mm 0.00 in0.0 mm 0.04 in1.0 mm
02:00 AM 37.6°F3.1°C 34.9°F1.6°C 90% 6.0 mph NE9.7 kmh NE 12.0 mph19.3 kmh 29.93 in1013.5 mb 0.00 in0.0 mm 0.00 in0.0 mm 0.04 in1.0 mm
02:15 AM 37.0°F2.8°C 34.3°F1.3°C 90% 7.0 mph NNE11.3 kmh NNE 12.0 mph19.3 kmh 29.93 in1013.5 mb 0.00 in0.0 mm 0.00 in0.0 mm 0.04 in1.0 mm
02:30 AM 37.0°F2.8°C 34.3°F1.3°C 90% 8.0 mph NE12.9 kmh NE 12.0 mph19.3 kmh 29.93 in1013.5 mb 0.00 in0.0 mm 0.00 in0.0 mm 0.04 in1.0 mm
02:45 AM 37.2°F2.9°C 34.5°F1.4°C 90% 8.0 mph NE12.9 kmh NE 11.0 mph17.7 kmh 29.92 in1013.2 mb 0.00 in0.0 mm 0.00 in0.0 mm 0.04 in1.0 mm
03:00 AM 37.0°F2.8°C 34.1°F1.2°C 89% 9.0 mph NE14.5 kmh NE 12.0 mph19.3 kmh 29.91 in1012.9 mb 0.00 in0.0 mm 0.00 in0.0 mm 0.04 in1.0 mm
03:15 AM 36.6°F2.6°C 33.9°F1.1°C 90% 8.0 mph NE12.9 kmh NE 13.0 mph20.9 kmh 29.90 in1012.5 mb 0.00 in0.0 mm 0.00 in0.0 mm 0.04 in1.0 mm
03:45 AM 37.3°F2.9°C 34.4°F1.3°C 89% 6.0 mph NE9.7 kmh NE 9.0 mph14.5 kmh 29.88 in1011.9 mb 0.00 in0.0 mm 0.00 in0.0 mm 0.04 in1.0 mm
04:00 AM 37.6°F3.1°C 34.4°F1.3°C 88% 5.0 mph ENE8.0 kmh ENE 9.0 mph14.5 kmh 29.86 in1011.2 mb 0.00 in0.0 mm 0.00 in0.0 mm 0.04 in1.0 mm
04:15 AM 37.5°F3.1°C 34.3°F1.3°C 88% 5.0 mph NE8.0 kmh NE 11.0 mph17.7 kmh 29.85 in1010.8 mb 0.00 in0.0 mm 0.00 in0.0 mm 0.04 in1.0 mm
04:30 AM 37.3°F2.9°C 34.1°F1.2°C 88% 5.0 mph NE8.0 kmh NE 10.0 mph16.1 kmh 29.85 in1010.8 mb 0.00 in0.0 mm 0.00 in0.0 mm 0.04 in1.0 mm
04:45 AM 37.5°F3.1°C 34.3°F1.3°C 88% 5.0 mph NE8.0 kmh NE 11.0 mph17.7 kmh 29.83 in1010.2 mb 0.00 in0.0 mm 0.00 in0.0 mm 0.04 in1.0 mm
05:00 AM 37.5°F3.1°C 34.0°F1.1°C 87% 5.0 mph NE8.0 kmh NE 10.0 mph16.1 kmh 29.83 in1010.2 mb 0.00 in0.0 mm 0.00 in0.0 mm 0.04 in1.0 mm
05:15 AM 37.7°F3.2°C 34.2°F1.2°C 87% 4.0 mph NE6.4 kmh NE 11.0 mph17.7 kmh 29.82 in1009.8 mb 0.00 in0.0 mm 0.00 in0.0 mm 0.04 in1.0 mm
05:30 AM 37.5°F3.1°C 34.3°F1.3°C 88% 5.0 mph NE8.0 kmh NE 12.0 mph19.3 kmh 29.82 in1009.8 mb 0.00 in0.0 mm 0.00 in0.0 mm 0.04 in1.0 mm
05:45 AM 37.6°F3.1°C 34.7°F1.5°C 89% 8.0 mph NE12.9 kmh NE 13.0 mph20.9 kmh 29.82 in1009.8 mb 0.01 in0.3 mm 0.04 in1.0 mm 0.01 in0.3 mm
06:00 AM 37.7°F3.2°C 34.8°F1.6°C 89% 7.0 mph NE11.3 kmh NE 11.0 mph17.7 kmh 29.82 in1009.8 mb 0.01 in0.3 mm 0.00 in0.0 mm 0.01 in0.3 mm
06:15 AM 38.2°F3.4°C 35.0°F1.7°C 88% 8.0 mph NE12.9 kmh NE 13.0 mph20.9 kmh 29.85 in1010.8 mb 0.02 in0.5 mm 0.04 in1.0 mm 0.02 in0.5 mm
06:30 AM 40.4°F4.7°C 35.9°F2.2°C 84% 4.0 mph NW6.4 kmh NW 8.0 mph12.9 kmh 29.83 in1010.2 mb 0.05 in1.3 mm 0.12 in3.0 mm 0.05 in1.3 mm
06:45 AM 41.4°F5.2°C 36.9°F2.7°C 84% 4.0 mph WNW6.4 kmh WNW 5.0 mph8.0 kmh 29.82 in1009.8 mb 0.06 in1.5 mm 0.04 in1.0 mm 0.07 in1.8 mm
07:00 AM 41.4°F5.2°C 36.9°F2.7°C 84% 2.0 mph WNW3.2 kmh WNW 5.0 mph8.0 kmh 29.82 in1009.8 mb 0.06 in1.5 mm 0.00 in0.0 mm 0.07 in1.8 mm
07:15 AM 37.5°F3.1°C 34.3°F1.3°C 88% 6.0 mph NNE9.7 kmh NNE 10.0 mph16.1 kmh 29.84 in1010.5 mb 0.06 in1.5 mm 0.00 in0.0 mm 0.08 in2.0 mm
07:30 AM 36.5°F2.5°C 34.1°F1.2°C 91% 7.0 mph NE11.3 kmh NE 12.0 mph19.3 kmh 29.84 in1010.5 mb 0.03 in0.8 mm 0.00 in0.0 mm 0.08 in2.0 mm
07:45 AM 36.3°F2.4°C 34.5°F1.4°C 93% 8.0 mph NE12.9 kmh NE 11.0 mph17.7 kmh 29.84 in1010.5 mb 0.01 in0.3 mm 0.00 in0.0 mm 0.08 in2.0 mm
08:00 AM 37.0°F2.8°C 35.2°F1.8°C 93% 7.0 mph NE11.3 kmh NE 10.0 mph16.1 kmh 29.84 in1010.5 mb 0.01 in0.3 mm 0.00 in0.0 mm 0.08 in2.0 mm
08:15 AM 37.1°F2.8°C 35.0°F1.7°C 92% 6.0 mph NE9.7 kmh NE 9.0 mph14.5 kmh 29.83 in1010.2 mb 0.00 in0.0 mm 0.00 in0.0 mm 0.08 in2.0 mm
08:30 AM 37.1°F2.8°C 35.0°F1.7°C 92% 5.0 mph NE8.0 kmh NE 6.0 mph9.7 kmh 29.82 in1009.8 mb 0.00 in0.0 mm 0.00 in0.0 mm 0.08 in2.0 mm
08:45 AM 37.3°F2.9°C 35.2°F1.8°C 92% 4.0 mph NE6.4 kmh NE 7.0 mph11.3 kmh 29.83 in1010.2 mb 0.00 in0.0 mm 0.00 in0.0 mm 0.08 in2.0 mm
09:00 AM 37.2°F2.9°C 35.4°F1.9°C 93% 3.0 mph NE4.8 kmh NE 5.0 mph8.0 kmh 29.83 in1010.2 mb 0.00 in0.0 mm 0.00 in0.0 mm 0.08 in2.0 mm
09:15 AM 37.6°F3.1°C 35.8°F2.1°C 93% 4.0 mph NE6.4 kmh NE 10.0 mph16.1 kmh 29.80 in1009.1 mb 0.02 in0.5 mm 0.08 in2.0 mm 0.10 in2.5 mm
09:30 AM 37.2°F2.9°C 35.4°F1.9°C 93% 6.0 mph NE9.7 kmh NE 12.0 mph19.3 kmh 29.81 in1009.5 mb 0.02 in0.5 mm 0.00 in0.0 mm 0.10 in2.5 mm
09:45 AM 37.6°F3.1°C 35.8°F2.1°C 93% 4.0 mph NE6.4 kmh NE 6.0 mph9.7 kmh 29.81 in1009.5 mb 0.02 in0.5 mm 0.00 in0.0 mm 0.10 in2.5 mm
10:00 AM 38.2°F3.4°C 36.4°F2.4°C 93% 4.0 mph NE6.4 kmh NE 7.0 mph11.3 kmh 29.82 in1009.8 mb 0.02 in0.5 mm 0.00 in0.0 mm 0.10 in2.5 mm
10:15 AM 38.7°F3.7°C 36.9°F2.7°C 93% 4.0 mph NE6.4 kmh NE 7.0 mph11.3 kmh 29.83 in1010.2 mb 0.00 in0.0 mm 0.00 in0.0 mm 0.10 in2.5 mm
10:30 AM 38.6°F3.7°C 36.2°F2.3°C 91% 3.0 mph NE4.8 kmh NE 5.0 mph8.0 kmh 29.84 in1010.5 mb 0.00 in0.0 mm 0.00 in0.0 mm 0.10 in2.5 mm
10:45 AM 39.4°F4.1°C 37.3°F2.9°C 92% 3.0 mph N4.8 kmh N 6.0 mph9.7 kmh 29.84 in1010.5 mb 0.01 in0.3 mm 0.04 in1.0 mm 0.11 in2.8 mm
11:00 AM 39.5°F4.2°C 37.1°F2.8°C 91% 4.0 mph NW6.4 kmh NW 9.0 mph14.5 kmh 29.87 in1011.5 mb 0.01 in0.3 mm 0.00 in0.0 mm 0.11 in2.8 mm
11:15 AM 40.3°F4.6°C 37.6°F3.1°C 90% 7.0 mph W11.3 kmh W 11.0 mph17.7 kmh 29.86 in1011.2 mb 0.03 in0.8 mm 0.08 in2.0 mm 0.13 in3.3 mm
11:30 AM 40.2°F4.6°C 37.5°F3.1°C 90% 6.0 mph SW9.7 kmh SW 11.0 mph17.7 kmh 29.84 in1010.5 mb 0.04 in1.0 mm 0.04 in1.0 mm 0.14 in3.6 mm
11:45 AM 41.4°F5.2°C 39.0°F3.9°C 91% Calm Calm 1.0 mph1.6 kmh 29.81 in1009.5 mb 0.03 in0.8 mm 0.00 in0.0 mm 0.14 in3.6 mm
12:00 PM 41.8°F5.4°C 39.1°F3.9°C 90% 2.0 mph SSW3.2 kmh SSW 5.0 mph8.0 kmh 29.81 in1009.5 mb 0.03 in0.8 mm 0.00 in0.0 mm 0.14 in3.6 mm
12:15 PM 41.9°F5.5°C 38.9°F3.8°C 89% 3.0 mph SW4.8 kmh SW 5.0 mph8.0 kmh 29.80 in1009.1 mb 0.01 in0.3 mm 0.00 in0.0 mm 0.14 in3.6 mm
12:30 PM 42.8°F6.0°C 39.8°F4.3°C 89% 2.0 mph SSW3.2 kmh SSW 5.0 mph8.0 kmh 29.80 in1009.1 mb 0.00 in0.0 mm 0.00 in0.0 mm 0.14 in3.6 mm
12:45 PM 42.3°F5.7°C 39.0°F3.9°C 88% 4.0 mph SSW6.4 kmh SSW 10.0 mph16.1 kmh 29.82 in1009.8 mb 0.00 in0.0 mm 0.00 in0.0 mm 0.14 in3.6 mm
01:00 PM 42.1°F5.6°C 39.1°F3.9°C 89% 4.0 mph SW6.4 kmh SW 4.0 mph6.4 kmh 29.82 in1009.8 mb 0.00 in0.0 mm 0.00 in0.0 mm 0.14 in3.6 mm
01:15 PM 42.4°F5.8°C 39.7°F4.3°C 90% 2.0 mph W3.2 kmh W 3.0 mph4.8 kmh 29.82 in1009.8 mb 0.00 in0.0 mm 0.00 in0.0 mm 0.14 in3.6 mm
01:30 PM 42.2°F5.7°C 39.2°F4.0°C 89% 1.0 mph WSW1.6 kmh WSW 2.0 mph3.2 kmh 29.82 in1009.8 mb 0.00 in0.0 mm 0.00 in0.0 mm 0.14 in3.6 mm
01:45 PM 41.9°F5.5°C 38.6°F3.7°C 88% 2.0 mph WSW3.2 kmh WSW 3.0 mph4.8 kmh 29.81 in1009.5 mb 0.00 in0.0 mm 0.00 in0.0 mm 0.14 in3.6 mm
02:00 PM 41.9°F5.5°C 38.9°F3.8°C 89% 2.0 mph WSW3.2 kmh WSW 3.0 mph4.8 kmh 29.81 in1009.5 mb 0.00 in0.0 mm 0.00 in0.0 mm 0.14 in3.6 mm
02:15 PM 42.6°F5.9°C 39.3°F4.1°C 88% 3.0 mph W4.8 kmh W 5.0 mph8.0 kmh 29.78 in1008.5 mb 0.00 in0.0 mm 0.00 in0.0 mm 0.14 in3.6 mm
02:30 PM 42.5°F5.8°C 38.3°F3.5°C 85% 4.0 mph WSW6.4 kmh WSW 9.0 mph14.5 kmh 29.78 in1008.5 mb 0.00 in0.0 mm 0.00 in0.0 mm 0.14 in3.6 mm
02:45 PM 44.5°F6.9°C 40.0°F4.4°C 84% 6.0 mph W9.7 kmh W 10.0 mph16.1 kmh 29.77 in1008.1 mb 0.00 in0.0 mm 0.00 in0.0 mm 0.14 in3.6 mm
03:00 PM 43.2°F6.2°C 39.0°F3.9°C 85% 4.0 mph W6.4 kmh W 6.0 mph9.7 kmh 29.77 in1008.1 mb 0.00 in0.0 mm 0.00 in0.0 mm 0.14 in3.6 mm
03:15 PM 44.0°F6.7°C 38.9°F3.8°C 82% 4.0 mph WSW6.4 kmh WSW 7.0 mph11.3 kmh 29.78 in1008.5 mb 0.00 in0.0 mm 0.00 in0.0 mm 0.14 in3.6 mm
03:30 PM 44.1°F6.7°C 39.0°F3.9°C 82% 3.0 mph WSW4.8 kmh WSW 4.0 mph6.4 kmh 29.78 in1008.5 mb 0.00 in0.0 mm 0.00 in0.0 mm 0.14 in3.6 mm
03:45 PM 45.7°F7.6°C 38.6°F3.7°C 76% 2.0 mph WSW3.2 kmh WSW 5.0 mph8.0 kmh 29.77 in1008.1 mb 0.00 in0.0 mm 0.00 in0.0 mm 0.14 in3.6 mm
04:00 PM 44.3°F6.8°C 38.2°F3.4°C 79% 2.0 mph WSW3.2 kmh WSW 2.0 mph3.2 kmh 29.78 in1008.5 mb 0.00 in0.0 mm 0.00 in0.0 mm 0.14 in3.6 mm
04:15 PM 43.2°F6.2°C 37.4°F3.0°C 80% 1.0 mph W1.6 kmh W 2.0 mph3.2 kmh 29.78 in1008.5 mb 0.00 in0.0 mm 0.00 in0.0 mm 0.14 in3.6 mm
04:30 PM 42.0°F5.6°C 37.2°F2.9°C 83% Calm Calm 1.0 mph1.6 kmh 29.77 in1008.1 mb 0.00 in0.0 mm 0.00 in0.0 mm 0.14 in3.6 mm
04:45 PM 40.8°F4.9°C 36.3°F2.4°C 84% 1.0 mph ENE1.6 kmh ENE 5.0 mph8.0 kmh 29.77 in1008.1 mb 0.00 in0.0 mm 0.00 in0.0 mm 0.14 in3.6 mm
05:00 PM 41.5°F5.3°C 37.0°F2.8°C 84% 3.0 mph SE4.8 kmh SE 5.0 mph8.0 kmh 29.77 in1008.1 mb 0.00 in0.0 mm 0.00 in0.0 mm 0.14 in3.6 mm
05:15 PM 40.3°F4.6°C 36.1°F2.3°C 85% 1.0 mph SE1.6 kmh SE 2.0 mph3.2 kmh 29.79 in1008.8 mb 0.00 in0.0 mm 0.00 in0.0 mm 0.14 in3.6 mm
05:30 PM 39.8°F4.3°C 36.0°F2.2°C 86% Calm Calm 11.0 mph17.7 kmh 29.79 in1008.8 mb 0.00 in0.0 mm 0.00 in0.0 mm 0.14 in3.6 mm
05:45 PM 38.8°F3.8°C 35.0°F1.7°C 86% 7.0 mph SW11.3 kmh SW 26.0 mph41.8 kmh 29.84 in1010.5 mb 0.01 in0.3 mm 0.04 in1.0 mm 0.15 in3.8 mm
06:00 PM 37.1°F2.8°C 35.0°F1.7°C 92% 16.0 mph WSW25.7 kmh WSW 20.0 mph32.2 kmh 29.84 in1010.5 mb 0.03 in0.8 mm 0.03 in0.8 mm 0.17 in4.3 mm
06:15 PM 37.0°F2.8°C 35.2°F1.8°C 93% 9.0 mph W14.5 kmh W 14.0 mph22.5 kmh 29.82 in1009.8 mb 0.06 in1.5 mm 0.12 in3.0 mm 0.20 in5.1 mm
06:30 PM 36.1°F2.3°C 33.7°F0.9°C 91% 7.0 mph W11.3 kmh W 15.0 mph24.1 kmh 29.84 in1010.5 mb 0.06 in1.5 mm 0.00 in0.0 mm 0.20 in5.1 mm
06:45 PM 35.3°F1.8°C 33.5°F0.8°C 93% 6.0 mph W9.7 kmh W 7.0 mph11.3 kmh 29.85 in1010.8 mb 0.06 in1.5 mm 0.00 in0.0 mm 0.21 in5.3 mm
07:00 PM 36.4°F2.4°C 34.6°F1.4°C 93% 8.0 mph WSW12.9 kmh WSW 16.0 mph25.7 kmh 29.85 in1010.8 mb 0.06 in1.5 mm 0.00 in0.0 mm 0.23 in5.8 mm
07:15 PM 35.7°F2.1°C 33.9°F1.1°C 93% 13.0 mph W20.9 kmh W 19.0 mph30.6 kmh 29.87 in1011.5 mb 0.04 in1.0 mm 0.00 in0.0 mm 0.24 in6.1 mm
07:30 PM 35.5°F1.9°C 33.9°F1.1°C 94% 5.0 mph WSW8.0 kmh WSW 6.0 mph9.7 kmh 29.88 in1011.9 mb 0.04 in1.0 mm 0.00 in0.0 mm 0.24 in6.1 mm
07:45 PM 35.8°F2.1°C 34.2°F1.2°C 94% 4.0 mph WSW6.4 kmh WSW 12.0 mph19.3 kmh 29.88 in1011.9 mb 0.04 in1.0 mm 0.00 in0.0 mm 0.25 in6.4 mm
08:00 PM 36.3°F2.4°C 34.2°F1.2°C 92% 9.0 mph WSW14.5 kmh WSW 14.0 mph22.5 kmh 29.89 in1012.2 mb 0.02 in0.5 mm 0.00 in0.0 mm 0.25 in6.4 mm
08:15 PM 36.1°F2.3°C 33.7°F0.9°C 91% 7.0 mph WSW11.3 kmh WSW 12.0 mph19.3 kmh 29.89 in1012.2 mb 0.01 in0.3 mm 0.00 in0.0 mm 0.25 in6.4 mm
08:30 PM 35.9°F2.2°C 33.5°F0.8°C 91% 6.0 mph WSW9.7 kmh WSW 12.0 mph19.3 kmh 29.89 in1012.2 mb 0.01 in0.3 mm 0.00 in0.0 mm 0.25 in6.4 mm
08:45 PM 36.1°F2.3°C 33.2°F0.7°C 89% 8.0 mph W12.9 kmh W 14.0 mph22.5 kmh 29.90 in1012.5 mb 0.00 in0.0 mm 0.00 in0.0 mm 0.25 in6.4 mm
09:00 PM 36.2°F2.3°C 33.3°F0.7°C 89% 9.0 mph WSW14.5 kmh WSW 12.0 mph19.3 kmh 29.91 in1012.9 mb 0.00 in0.0 mm 0.00 in0.0 mm 0.25 in6.4 mm
09:15 PM 36.4°F2.4°C 33.5°F0.8°C 89% 7.0 mph WSW11.3 kmh WSW 13.0 mph20.9 kmh 29.90 in1012.5 mb 0.00 in0.0 mm 0.00 in0.0 mm 0.25 in6.4 mm
09:30 PM 36.6°F2.6°C 33.7°F0.9°C 89% 10.0 mph W16.1 kmh W 17.0 mph27.4 kmh 29.90 in1012.5 mb 0.00 in0.0 mm 0.00 in0.0 mm 0.25 in6.4 mm
09:45 PM 36.1°F2.3°C 33.7°F0.9°C 91% 14.0 mph W22.5 kmh W 21.0 mph33.8 kmh 29.91 in1012.9 mb 0.00 in0.0 mm 0.00 in0.0 mm 0.25 in6.4 mm
10:00 PM 35.8°F2.1°C 33.7°F0.9°C 92% 16.0 mph W25.7 kmh W 25.0 mph40.2 kmh 29.91 in1012.9 mb 0.00 in0.0 mm 0.00 in0.0 mm 0.25 in6.4 mm
10:15 PM 35.0°F1.7°C 33.2°F0.7°C 93% 16.0 mph W25.7 kmh W 24.0 mph38.6 kmh 29.93 in1013.5 mb 0.00 in0.0 mm 0.00 in0.0 mm 0.25 in6.4 mm
10:30 PM 34.1°F1.2°C 32.3°F0.2°C 93% 16.0 mph W25.7 kmh W 21.0 mph33.8 kmh 29.94 in1013.9 mb 0.00 in0.0 mm 0.00 in0.0 mm 0.25 in6.4 mm
10:45 PM 34.4°F1.3°C 32.9°F0.5°C 94% 12.0 mph W19.3 kmh W 19.0 mph30.6 kmh 29.94 in1013.9 mb 0.00 in0.0 mm 0.00 in0.0 mm 0.25 in6.4 mm
11:00 PM 33.5°F0.8°C 32.0°F0.0°C 94% 13.0 mph W20.9 kmh W 17.0 mph27.4 kmh 29.96 in1014.6 mb 0.00 in0.0 mm 0.00 in0.0 mm 0.25 in6.4 mm
11:15 PM 33.6°F0.9°C 32.1°F0.1°C 94% 10.0 mph W16.1 kmh W 14.0 mph22.5 kmh 29.96 in1014.6 mb 0.02 in0.5 mm 0.08 in2.0 mm 0.27 in6.9 mm
11:30 PM 33.7°F0.9°C 32.2°F0.1°C 94% 9.0 mph WNW14.5 kmh WNW 13.0 mph20.9 kmh 29.96 in1014.6 mb 0.02 in0.5 mm 0.00 in0.0 mm 0.27 in6.9 mm
11:45 PM 34.2°F1.2°C 32.7°F0.4°C 94% 7.0 mph W11.3 kmh W 12.0 mph19.3 kmh 29.96 in1014.6 mb 0.03 in0.8 mm 0.04 in1.0 mm 0.28 in7.1 mm